Time;durP1;ratioP1;P1;durP2;ratioP2;P2;SDS_P1;SDS_P2;PMS_P1;PMS_P2;Temp;Humidity;BMP_temperature;BMP_pressure;BME280_temperature;BME280_humidity;BME280_pressure;Samples;Min_cycle;Max_cycle;Signal;HPM_P1;HPM_P2
2023/05/18 00:00:09;;;;;;;;;;;9.60;92.00;;;;;;5064371;28;19959;-72
2023/05/18 00:02:36;;;;;;;;;;;9.60;92.30;;;;;;5056327;28;20555;-71
2023/05/18 00:05:02;;;;;;;;;;;9.60;92.50;;;;;;5087242;28;19924;-72
2023/05/18 00:07:32;;;;;;;;;;;9.50;92.70;;;;;;5083207;28;19912;-72
2023/05/18 00:09:58;;;;;;;;;;;9.50;92.90;;;;;;5068121;28;20045;-71
2023/05/18 00:12:24;;;;;;;;;;;9.50;93.40;;;;;;5079449;28;20446;-72
2023/05/18 00:14:50;;;;;;;;;;;9.50;93.10;;;;;;5085393;28;20326;-72
2023/05/18 00:17:15;;;;;;;;;;;9.50;93.10;;;;;;5082220;28;19998;-72
2023/05/18 00:19:41;;;;;;;;;;;9.50;93.00;;;;;;5084742;28;19920;-72
2023/05/18 00:22:07;;;;;;;;;;;9.50;93.30;;;;;;5083304;28;19916;-71
2023/05/18 00:24:32;;;;;;;;;;;9.50;92.60;;;;;;5062901;28;19916;-72
2023/05/18 00:26:58;;;;;;;;;;;9.50;92.60;;;;;;5060410;28;19912;-72
2023/05/18 00:29:24;;;;;;;;;;;9.50;93.10;;;;;;5045207;28;19920;-72
2023/05/18 00:31:49;;;;;;;;;;;9.50;93.10;;;;;;5082434;28;20335;-72
2023/05/18 00:34:15;;;;;;;;;;;9.50;92.90;;;;;;5085095;28;19916;-71
2023/05/18 00:36:41;;;;;;;;;;;9.50;93.30;;;;;;5079606;28;19985;-71
2023/05/18 00:39:08;;;;;;;;;;;9.50;92.90;;;;;;5080075;28;19932;-71
2023/05/18 00:41:33;;;;;;;;;;;9.50;92.90;;;;;;5077191;28;19920;-72
2023/05/18 00:43:59;;;;;;;;;;;9.60;92.80;;;;;;5083866;28;19919;-72
2023/05/18 00:46:26;;;;;;;;;;;9.50;92.60;;;;;;5082086;28;19922;-72
2023/05/18 00:48:52;;;;;;;;;;;9.60;92.60;;;;;;5061293;28;19963;-71
2023/05/18 00:51:18;;;;;;;;;;;9.60;92.60;;;;;;5079835;28;19920;-72
2023/05/18 00:53:44;;;;;;;;;;;9.60;92.70;;;;;;5049277;28;19916;-72
2023/05/18 00:56:11;;;;;;;;;;;9.50;93.00;;;;;;5083868;28;20425;-72
2023/05/18 00:58:40;;;;;;;;;;;9.60;93.10;;;;;;5044458;28;20311;-71
2023/05/18 01:01:08;;;;;;;;;;;9.60;93.00;;;;;;5062239;28;20023;-72
2023/05/18 01:03:36;;;;;;;;;;;9.60;93.00;;;;;;5062297;28;20271;-71
2023/05/18 01:06:06;;;;;;;;;;;9.60;93.30;;;;;;5062833;28;20448;-72
2023/05/18 01:08:32;;;;;;;;;;;9.60;93.10;;;;;;5062522;28;19927;-72
2023/05/18 01:11:18;;;;;;;;;;;9.50;92.90;;;;;;5060043;28;19916;-72
2023/05/18 01:14:00;;;;;;;;;;;9.50;92.50;;;;;;5035412;28;20312;-72
2023/05/18 01:16:27;;;;;;;;;;;9.50;92.60;;;;;;5063654;28;19962;-72
2023/05/18 01:19:12;;;;;;;;;;;9.50;92.60;;;;;;5059177;28;19966;-72
2023/05/18 01:22:04;;;;;;;;;;;9.50;93.00;;;;;;5061289;28;19959;-72
2023/05/18 01:24:34;;;;;;;;;;;9.50;93.20;;;;;;5050988;28;20284;-72
2023/05/18 01:27:02;;;;;;;;;;;9.50;93.10;;;;;;5060563;28;19912;-72
2023/05/18 01:29:29;;;;;;;;;;;9.50;93.40;;;;;;5082431;28;20275;-72
2023/05/18 01:31:55;;;;;;;;;;;9.60;93.30;;;;;;5057187;28;20412;-72
2023/05/18 01:34:21;;;;;;;;;;;9.60;93.30;;;;;;5080992;28;20054;-73
2023/05/18 01:36:47;;;;;;;;;;;9.50;93.10;;;;;;5061620;28;20004;-71
2023/05/18 01:41:55;;;;;;;;;;;9.50;93.50;;;;;;5076140;28;19924;-74
2023/05/18 01:44:20;;;;;;;;;;;9.50;93.90;;;;;;5057485;28;19924;-72
2023/05/18 01:47:00;;;;;;;;;;;9.50;94.10;;;;;;5054309;28;19916;-73
2023/05/18 01:49:41;;;;;;;;;;;9.50;94.10;;;;;;5080805;28;19913;-73
2023/05/18 01:52:13;;;;;;;;;;;9.50;94.40;;;;;;5042434;28;19912;-73
2023/05/18 01:54:43;;;;;;;;;;;9.50;94.30;;;;;;5066303;28;19916;-73
2023/05/18 01:57:09;;;;;;;;;;;9.50;94.00;;;;;;5084399;28;20403;-73
2023/05/18 01:59:35;;;;;;;;;;;9.50;94.10;;;;;;5063795;28;19968;-73
2023/05/18 02:02:02;;;;;;;;;;;9.50;93.80;;;;;;5063873;28;19912;-73
2023/05/18 02:04:27;;;;;;;;;;;9.50;93.50;;;;;;5081381;28;19975;-73
2023/05/18 02:06:54;;;;;;;;;;;9.40;93.50;;;;;;5082486;28;19951;-73
2023/05/18 02:09:20;;;;;;;;;;;9.40;93.50;;;;;;5060324;28;20023;-73
2023/05/18 02:11:46;;;;;;;;;;;9.40;93.70;;;;;;5082953;28;19916;-73
2023/05/18 02:14:12;;;;;;;;;;;9.40;93.00;;;;;;5062220;28;19989;-73
2023/05/18 02:16:37;;;;;;;;;;;9.40;93.00;;;;;;5080736;28;19987;-73
2023/05/18 02:19:03;;;;;;;;;;;9.30;93.20;;;;;;5081208;28;19999;-72
2023/05/18 02:21:29;;;;;;;;;;;9.30;93.30;;;;;;5062169;28;20334;-72
2023/05/18 02:23:55;;;;;;;;;;;9.30;93.20;;;;;;5062798;28;19942;-73
2023/05/18 02:26:20;;;;;;;;;;;9.30;93.40;;;;;;5078919;28;19924;-73
2023/05/18 02:28:46;;;;;;;;;;;9.30;93.30;;;;;;5073657;28;19923;-73
2023/05/18 02:31:11;;;;;;;;;;;9.30;93.60;;;;;;5060257;28;20352;-73
2023/05/18 02:33:40;;;;;;;;;;;9.30;93.80;;;;;;5083107;28;19916;-73
2023/05/18 02:36:12;;;;;;;;;;;9.20;94.10;;;;;;5078121;28;19912;-73
2023/05/18 02:38:39;;;;;;;;;;;9.20;94.00;;;;;;5062626;28;19921;-73
2023/05/18 02:41:04;;;;;;;;;;;9.20;93.90;;;;;;5062080;28;19916;-73
2023/05/18 02:43:30;;;;;;;;;;;9.20;94.00;;;;;;5067480;28;20371;-72
2023/05/18 02:45:56;;;;;;;;;;;9.20;94.10;;;;;;5063685;28;19920;-73
2023/05/18 02:48:22;;;;;;;;;;;9.20;93.90;;;;;;5065547;28;19912;-73
2023/05/18 02:50:47;;;;;;;;;;;9.20;94.20;;;;;;5068098;28;21617;-73
2023/05/18 02:53:13;;;;;;;;;;;9.20;94.30;;;;;;5083029;28;19916;-73
2023/05/18 02:55:40;;;;;;;;;;;9.20;94.40;;;;;;5086049;28;20379;-73
2023/05/18 02:58:05;;;;;;;;;;;9.20;94.30;;;;;;5086054;28;19995;-73
2023/05/18 03:00:31;;;;;;;;;;;9.20;94.40;;;;;;5062501;28;20030;-72
2023/05/18 03:02:59;;;;;;;;;;;9.20;94.50;;;;;;5078191;28;19927;-73
2023/05/18 03:05:25;;;;;;;;;;;9.20;94.30;;;;;;5066529;28;19924;-73
2023/05/18 03:07:51;;;;;;;;;;;9.20;94.40;;;;;;5064188;28;20314;-73
2023/05/18 03:10:17;;;;;;;;;;;9.20;94.70;;;;;;5064826;28;19913;-73
2023/05/18 03:12:43;;;;;;;;;;;9.20;94.70;;;;;;5083335;28;20008;-73
2023/05/18 03:15:10;;;;;;;;;;;9.20;94.90;;;;;;5062803;28;20011;-73
2023/05/18 03:17:36;;;;;;;;;;;9.20;94.90;;;;;;5063943;28;20669;-73
2023/05/18 03:20:03;;;;;;;;;;;9.20;95.20;;;;;;5063588;28;19938;-73
2023/05/18 03:22:29;;;;;;;;;;;9.20;95.10;;;;;;5084556;28;19939;-73
2023/05/18 03:24:55;;;;;;;;;;;9.20;95.10;;;;;;5086549;28;20438;-73
2023/05/18 03:27:24;;;;;;;;;;;9.20;95.10;;;;;;5065700;28;20338;-73
2023/05/18 03:29:51;;;;;;;;;;;9.20;95.10;;;;;;5085732;28;19912;-73
2023/05/18 03:32:17;;;;;;;;;;;9.20;95.20;;;;;;5066377;28;19923;-73
2023/05/18 03:34:43;;;;;;;;;;;9.20;95.00;;;;;;5063573;28;19917;-73
2023/05/18 03:37:09;;;;;;;;;;;9.20;95.20;;;;;;5084983;28;19942;-72
2023/05/18 03:39:34;;;;;;;;;;;9.20;95.20;;;;;;5081180;28;20464;-72
2023/05/18 03:42:00;;;;;;;;;;;9.20;94.90;;;;;;5084128;28;20158;-73
2023/05/18 03:44:26;;;;;;;;;;;9.20;95.10;;;;;;5049204;28;19966;-73
2023/05/18 03:46:52;;;;;;;;;;;9.20;94.80;;;;;;5064088;28;19916;-73
2023/05/18 03:49:17;;;;;;;;;;;9.20;94.90;;;;;;5081068;28;20433;-73
2023/05/18 03:51:43;;;;;;;;;;;9.20;95.30;;;;;;5064773;28;19908;-72
2023/05/18 03:54:08;;;;;;;;;;;9.20;95.00;;;;;;5082980;28;19962;-73
2023/05/18 03:56:34;;;;;;;;;;;9.20;95.10;;;;;;5088199;28;19923;-73
2023/05/18 03:59:00;;;;;;;;;;;9.20;95.40;;;;;;5083362;28;19952;-73
2023/05/18 04:01:29;;;;;;;;;;;9.20;95.60;;;;;;5085888;28;20494;-73
2023/05/18 04:03:55;;;;;;;;;;;9.20;95.10;;;;;;5077335;28;19939;-73
2023/05/18 04:06:22;;;;;;;;;;;9.30;95.10;;;;;;5082815;28;19916;-73
2023/05/18 04:08:48;;;;;;;;;;;9.30;95.60;;;;;;5081980;28;19928;-72
2023/05/18 04:11:14;;;;;;;;;;;9.30;95.10;;;;;;5081514;28;19969;-72
2023/05/18 04:13:40;;;;;;;;;;;9.30;95.00;;;;;;5060433;28;19912;-73
2023/05/18 04:16:06;;;;;;;;;;;9.30;94.70;;;;;;5064086;28;19916;-73
2023/05/18 04:18:32;;;;;;;;;;;9.30;94.50;;;;;;5063535;28;20301;-72
2023/05/18 04:20:59;;;;;;;;;;;9.30;94.90;;;;;;5083232;28;19965;-73
2023/05/18 04:23:25;;;;;;;;;;;9.30;94.80;;;;;;5061184;28;19923;-73
2023/05/18 04:25:51;;;;;;;;;;;9.30;94.30;;;;;;5067437;28;19920;-73
2023/05/18 04:28:16;;;;;;;;;;;9.30;94.40;;;;;;5061822;28;19916;-73
2023/05/18 04:30:42;;;;;;;;;;;9.30;94.80;;;;;;5081646;28;19912;-72
2023/05/18 04:33:09;;;;;;;;;;;9.30;94.50;;;;;;5061259;28;20378;-72
2023/05/18 04:35:35;;;;;;;;;;;9.30;94.20;;;;;;5064117;28;19943;-72
2023/05/18 04:38:01;;;;;;;;;;;9.30;94.50;;;;;;5082063;28;19970;-72
2023/05/18 04:40:26;;;;;;;;;;;9.30;94.40;;;;;;5084797;28;19927;-73
2023/05/18 04:42:52;;;;;;;;;;;9.30;94.30;;;;;;5082842;28;20159;-73
2023/05/18 04:45:21;;;;;;;;;;;9.30;93.80;;;;;;5084894;28;19916;-73
2023/05/18 04:47:52;;;;;;;;;;;9.30;93.40;;;;;;5062893;28;19913;-73
2023/05/18 04:50:18;;;;;;;;;;;9.30;93.60;;;;;;5054919;28;19919;-73
2023/05/18 04:52:47;;;;;;;;;;;9.40;93.50;;;;;;5066036;28;19958;-74
2023/05/18 04:55:18;;;;;;;;;;;9.40;96.10;;;;;;5082211;28;19916;-73
2023/05/18 04:57:44;;;;;;;;;;;10.90;95.70;;;;;;5063391;28;19916;-73
2023/05/18 05:00:11;;;;;;;;;;;10.40;93.40;;;;;;5061841;28;20650;-73
2023/05/18 05:02:37;;;;;;;;;;;10.10;93.00;;;;;;5081586;28;19993;-73
2023/05/18 05:05:02;;;;;;;;;;;10.00;93.30;;;;;;5082568;28;20414;-73
2023/05/18 05:07:28;;;;;;;;;;;9.90;92.90;;;;;;5049537;28;19927;-73
2023/05/18 05:09:54;;;;;;;;;;;9.80;95.00;;;;;;5066341;28;19922;-75
2023/05/18 05:12:19;;;;;;;;;;;11.00;97.50;;;;;;5077103;28;19916;-74
2023/05/18 05:14:45;;;;;;;;;;;10.60;93.10;;;;;;5062228;28;19919;-72
2023/05/18 05:17:11;;;;;;;;;;;10.40;92.70;;;;;;5060434;28;19920;-73
2023/05/18 05:19:38;;;;;;;;;;;10.30;92.70;;;;;;5077372;28;20590;-73
2023/05/18 05:22:04;;;;;;;;;;;10.10;92.50;;;;;;5081844;28;19922;-73
2023/05/18 05:24:29;;;;;;;;;;;10.00;92.20;;;;;;5078243;28;19924;-72
2023/05/18 05:26:55;;;;;;;;;;;10.00;92.50;;;;;;5076488;28;20018;-73
2023/05/18 05:29:21;;;;;;;;;;;9.90;92.10;;;;;;5057419;28;19916;-73
2023/05/18 05:31:46;;;;;;;;;;;9.90;92.50;;;;;;5076997;28;19916;-72
2023/05/18 05:34:12;;;;;;;;;;;9.80;92.30;;;;;;5061559;28;19927;-72
2023/05/18 05:36:38;;;;;;;;;;;9.80;92.40;;;;;;5057309;28;20366;-73
2023/05/18 05:39:03;;;;;;;;;;;9.80;92.10;;;;;;5078434;28;20347;-72
2023/05/18 05:41:29;;;;;;;;;;;9.80;92.30;;;;;;5059131;28;20127;-73
2023/05/18 05:43:55;;;;;;;;;;;9.80;92.60;;;;;;5081756;28;19912;-73
2023/05/18 05:46:21;;;;;;;;;;;9.80;93.00;;;;;;5081659;28;19939;-73
2023/05/18 05:48:46;;;;;;;;;;;9.80;93.40;;;;;;5084845;28;20014;-72
2023/05/18 05:51:12;;;;;;;;;;;9.80;93.10;;;;;;5058432;28;19970;-73
2023/05/18 05:53:38;;;;;;;;;;;9.80;92.70;;;;;;5076219;28;19961;-74
2023/05/18 05:56:03;;;;;;;;;;;9.90;95.40;;;;;;5058503;28;19951;-74
2023/05/18 05:58:29;;;;;;;;;;;9.90;92.80;;;;;;5063861;28;19966;-73
2023/05/18 06:00:55;;;;;;;;;;;9.90;92.30;;;;;;5075677;28;19958;-74
2023/05/18 06:03:21;;;;;;;;;;;9.90;91.90;;;;;;5061355;28;19966;-72
2023/05/18 06:05:46;;;;;;;;;;;9.90;92.50;;;;;;5084046;28;20458;-73
2023/05/18 06:08:12;;;;;;;;;;;9.80;92.60;;;;;;5082600;28;19917;-73
2023/05/18 06:10:39;;;;;;;;;;;10.00;92.40;;;;;;5065416;28;19951;-72
2023/05/18 06:13:05;;;;;;;;;;;10.00;92.40;;;;;;5077758;28;19920;-73
2023/05/18 06:15:30;;;;;;;;;;;10.00;92.30;;;;;;5082211;28;19912;-73
2023/05/18 06:17:56;;;;;;;;;;;10.00;92.20;;;;;;5064965;28;19948;-74
2023/05/18 06:20:22;;;;;;;;;;;10.00;92.20;;;;;;5088146;28;19967;-73
2023/05/18 06:22:47;;;;;;;;;;;10.00;91.60;;;;;;5086391;28;19927;-73
2023/05/18 06:25:13;;;;;;;;;;;10.00;91.50;;;;;;5065634;28;19923;-73
2023/05/18 06:27:38;;;;;;;;;;;10.10;91.90;;;;;;5052597;28;19916;-74
2023/05/18 06:30:04;;;;;;;;;;;10.10;91.90;;;;;;5084002;28;19958;-74
2023/05/18 06:32:30;;;;;;;;;;;10.20;92.20;;;;;;5084515;28;19920;-72
2023/05/18 06:34:56;;;;;;;;;;;10.30;92.10;;;;;;5064624;28;19950;-73
2023/05/18 06:37:21;;;;;;;;;;;10.30;92.00;;;;;;5088008;28;19916;-73
2023/05/18 06:39:47;;;;;;;;;;;10.40;92.10;;;;;;5082963;28;19970;-73
2023/05/18 06:42:13;;;;;;;;;;;10.20;92.20;;;;;;5089877;28;19920;-73
2023/05/18 06:44:38;;;;;;;;;;;10.30;91.90;;;;;;5081250;28;19924;-72
2023/05/18 06:47:04;;;;;;;;;;;10.30;91.30;;;;;;5087695;28;19916;-73
2023/05/18 06:49:30;;;;;;;;;;;10.40;91.50;;;;;;5084093;28;19913;-73
2023/05/18 06:51:56;;;;;;;;;;;10.40;91.70;;;;;;5085219;28;19912;-73
2023/05/18 06:54:22;;;;;;;;;;;10.40;91.40;;;;;;5069894;28;19919;-73
2023/05/18 06:56:47;;;;;;;;;;;10.50;91.30;;;;;;5066774;28;19916;-73
2023/05/18 06:59:13;;;;;;;;;;;10.50;91.50;;;;;;5066342;28;20371;-73
2023/05/18 07:01:38;;;;;;;;;;;10.50;91.70;;;;;;5049126;28;19917;-73
2023/05/18 07:04:04;;;;;;;;;;;10.60;91.30;;;;;;5084821;28;19912;-73
2023/05/18 07:06:30;;;;;;;;;;;10.50;91.00;;;;;;5065002;28;19939;-73
2023/05/18 07:08:56;;;;;;;;;;;10.70;91.00;;;;;;5081495;28;19912;-74
2023/05/18 07:11:23;;;;;;;;;;;10.70;91.20;;;;;;5081993;28;19916;-73
2023/05/18 07:13:48;;;;;;;;;;;10.70;91.00;;;;;;5079279;28;19966;-72
2023/05/18 07:16:20;;;;;;;;;;;10.70;91.50;;;;;;5080335;28;19923;-73
2023/05/18 07:18:45;;;;;;;;;;;10.80;90.90;;;;;;5069094;28;19920;-73
2023/05/18 07:21:11;;;;;;;;;;;10.90;90.50;;;;;;5062598;28;19931;-71
2023/05/18 07:23:37;;;;;;;;;;;10.90;91.20;;;;;;5081893;28;20015;-73
2023/05/18 07:26:02;;;;;;;;;;;10.80;90.90;;;;;;5085934;28;19969;-73
2023/05/18 07:28:28;;;;;;;;;;;10.90;90.00;;;;;;5083188;28;20333;-73
2023/05/18 07:30:54;;;;;;;;;;;11.00;89.60;;;;;;5091132;28;19916;-73
2023/05/18 07:33:19;;;;;;;;;;;11.00;90.00;;;;;;5084922;28;19912;-73
2023/05/18 07:35:45;;;;;;;;;;;11.10;89.40;;;;;;5066741;28;20012;-73
2023/05/18 07:38:10;;;;;;;;;;;11.10;88.70;;;;;;5088470;28;19916;-73
2023/05/18 07:40:36;;;;;;;;;;;11.30;88.80;;;;;;5087951;22;19960;-71
2023/05/18 07:43:02;;;;;;;;;;;11.30;87.90;;;;;;5086849;28;19998;-72
2023/05/18 07:45:28;;;;;;;;;;;11.30;88.20;;;;;;5105997;27;20363;-71
2023/05/18 07:47:53;;;;;;;;;;;11.50;88.00;;;;;;5106017;28;19954;-72
2023/05/18 07:50:22;;;;;;;;;;;11.50;87.80;;;;;;5087776;28;19959;-72
2023/05/18 07:52:47;;;;;;;;;;;11.60;86.60;;;;;;5084346;28;20394;-72
2023/05/18 07:55:13;;;;;;;;;;;11.70;86.60;;;;;;5105087;27;19967;-72
2023/05/18 07:57:39;;;;;;;;;;;11.50;87.10;;;;;;5087137;28;19935;-72
2023/05/18 08:00:05;;;;;;;;;;;11.60;86.20;;;;;;5086805;28;19916;-74
2023/05/18 08:02:31;;;;;;;;;;;11.70;86.70;;;;;;5087702;27;20019;-72
2023/05/18 08:04:56;;;;;;;;;;;11.80;86.40;;;;;;5089093;28;19999;-73
2023/05/18 08:07:25;;;;;;;;;;;11.70;86.90;;;;;;5108691;27;19939;-72
2023/05/18 08:09:50;;;;;;;;;;;11.80;85.60;;;;;;5083664;28;19968;-74
2023/05/18 08:12:16;;;;;;;;;;;11.70;84.90;;;;;;5086039;28;21485;-71
2023/05/18 08:14:41;;;;;;;;;;;11.90;84.60;;;;;;5088802;28;20430;-71
2023/05/18 08:17:07;;;;;;;;;;;12.00;83.60;;;;;;5103763;27;20086;-71
2023/05/18 08:19:33;;;;;;;;;;;11.90;84.90;;;;;;5094459;27;19943;-73
2023/05/18 08:21:59;;;;;;;;;;;12.00;85.10;;;;;;5102931;27;19949;-72
2023/05/18 08:24:26;;;;;;;;;;;12.00;84.20;;;;;;5105180;27;19985;-80
2023/05/18 08:26:52;;;;;;;;;;;12.00;82.50;;;;;;5072332;27;19913;-74
2023/05/18 08:29:18;;;;;;;;;;;12.00;83.70;;;;;;5105392;27;19926;-73
2023/05/18 08:31:45;;;;;;;;;;;12.10;84.20;;;;;;5106344;27;19920;-73
2023/05/18 08:34:11;;;;;;;;;;;11.90;85.20;;;;;;5110703;27;19998;-72
2023/05/18 08:36:37;;;;;;;;;;;11.80;84.40;;;;;;5084579;28;19997;-75
2023/05/18 08:39:03;;;;;;;;;;;12.00;83.00;;;;;;5097817;28;19922;-74
2023/05/18 08:41:30;;;;;;;;;;;11.80;82.70;;;;;;5105461;28;21032;-75
2023/05/18 08:44:08;;;;;;;;;;;11.80;83.60;;;;;;5087129;28;19915;-73
2023/05/18 08:46:36;;;;;;;;;;;11.80;82.70;;;;;;5105996;27;19916;-72
2023/05/18 08:49:03;;;;;;;;;;;12.00;85.50;;;;;;5089942;28;20008;-72
2023/05/18 08:51:31;;;;;;;;;;;12.20;84.00;;;;;;5090015;28;19931;-72
2023/05/18 08:53:57;;;;;;;;;;;12.20;82.40;;;;;;5089368;28;19996;-72
2023/05/18 08:56:24;;;;;;;;;;;12.20;83.50;;;;;;5108494;28;20391;-72
2023/05/18 08:58:51;;;;;;;;;;;12.40;84.00;;;;;;5070263;28;19912;-72
2023/05/18 09:01:16;;;;;;;;;;;12.40;81.30;;;;;;5107411;27;20359;-72
2023/05/18 09:03:43;;;;;;;;;;;12.30;81.90;;;;;;5108781;28;19966;-72
2023/05/18 09:06:09;;;;;;;;;;;12.40;82.30;;;;;;5108751;28;19919;-72
2023/05/18 09:08:35;;;;;;;;;;;12.30;82.50;;;;;;5090957;28;20698;-73
2023/05/18 09:11:01;;;;;;;;;;;12.20;82.20;;;;;;5109206;28;20003;-72
2023/05/18 09:13:26;;;;;;;;;;;12.20;81.90;;;;;;5090626;27;19954;-73
2023/05/18 09:15:52;;;;;;;;;;;12.20;81.70;;;;;;5107883;28;19951;-73
2023/05/18 09:18:18;;;;;;;;;;;12.10;81.40;;;;;;5086805;28;20483;-72
2023/05/18 09:20:44;;;;;;;;;;;12.10;81.00;;;;;;5107645;28;19918;-72
2023/05/18 09:23:13;;;;;;;;;;;12.10;82.40;;;;;;5108717;28;19915;-72
2023/05/18 09:25:42;;;;;;;;;;;12.00;80.80;;;;;;5087796;28;19915;-73
2023/05/18 09:28:07;;;;;;;;;;;12.10;80.60;;;;;;5090701;28;19919;-72
2023/05/18 09:30:38;;;;;;;;;;;12.10;82.10;;;;;;5088446;28;19908;-74
2023/05/18 09:33:04;;;;;;;;;;;12.20;82.20;;;;;;5107340;28;20375;-71
2023/05/18 09:35:30;;;;;;;;;;;12.10;81.30;;;;;;5091928;28;19907;-71
2023/05/18 09:37:56;;;;;;;;;;;12.10;81.70;;;;;;5112400;27;20297;-72
2023/05/18 09:40:27;;;;;;;;;;;12.00;81.90;;;;;;5109938;28;20400;-73
2023/05/18 09:42:54;;;;;;;;;;;12.20;82.40;;;;;;5108479;28;20339;-71
2023/05/18 09:45:25;;;;;;;;;;;12.30;82.50;;;;;;5104575;28;19927;-71
2023/05/18 09:47:51;;;;;;;;;;;12.30;81.40;;;;;;5107429;28;19959;-71
2023/05/18 09:50:21;;;;;;;;;;;12.30;82.00;;;;;;5109212;28;19946;-71
2023/05/18 09:52:48;;;;;;;;;;;12.40;82.10;;;;;;5106570;28;20341;-71
2023/05/18 09:55:15;;;;;;;;;;;12.40;81.80;;;;;;5107009;28;19927;-71
2023/05/18 09:57:45;;;;;;;;;;;12.40;81.50;;;;;;5108564;28;19919;-73
2023/05/18 10:00:12;;;;;;;;;;;12.30;81.10;;;;;;5089887;28;19943;-71
2023/05/18 10:02:42;;;;;;;;;;;12.40;81.00;;;;;;5109606;28;20422;-73
2023/05/18 10:05:25;;;;;;;;;;;12.40;81.50;;;;;;5088420;28;19920;-71
2023/05/18 10:07:50;;;;;;;;;;;12.40;80.30;;;;;;5090711;28;19919;-71
2023/05/18 10:10:18;;;;;;;;;;;12.40;79.50;;;;;;5085338;28;20309;-71
2023/05/18 10:12:43;;;;;;;;;;;12.50;78.60;;;;;;5087006;28;19919;-73
2023/05/18 10:15:13;;;;;;;;;;;12.50;78.30;;;;;;5088537;28;19916;-73
2023/05/18 10:17:39;;;;;;;;;;;12.60;79.70;;;;;;5106203;28;20359;-73
2023/05/18 10:20:08;;;;;;;;;;;12.50;78.50;;;;;;5111784;28;19919;-73
2023/05/18 10:22:34;;;;;;;;;;;12.60;77.20;;;;;;5068548;28;19912;-74
2023/05/18 10:25:02;;;;;;;;;;;12.60;77.50;;;;;;5089727;28;19912;-73
2023/05/18 10:27:27;;;;;;;;;;;12.70;77.80;;;;;;5111230;28;20278;-73
2023/05/18 10:29:56;;;;;;;;;;;12.70;78.80;;;;;;5106774;28;19911;-73
2023/05/18 10:32:24;;;;;;;;;;;12.70;78.40;;;;;;5089889;28;19919;-72
2023/05/18 10:34:51;;;;;;;;;;;12.70;77.30;;;;;;5108084;28;19951;-73
2023/05/18 10:37:18;;;;;;;;;;;12.80;79.30;;;;;;5085388;28;19915;-73
2023/05/18 10:39:44;;;;;;;;;;;12.80;79.00;;;;;;5105330;28;19972;-73
2023/05/18 10:42:10;;;;;;;;;;;12.80;78.80;;;;;;5105905;28;19915;-73
2023/05/18 10:44:36;;;;;;;;;;;12.90;80.30;;;;;;5107954;28;19916;-71
2023/05/18 10:47:04;;;;;;;;;;;12.90;78.50;;;;;;5090209;28;19934;-71
2023/05/18 10:49:31;;;;;;;;;;;13.00;79.00;;;;;;5101170;28;19953;-73
2023/05/18 10:51:56;;;;;;;;;;;13.00;81.50;;;;;;5092895;28;20394;-73
2023/05/18 10:54:22;;;;;;;;;;;13.10;77.40;;;;;;5089275;28;19927;-73
2023/05/18 10:56:50;;;;;;;;;;;13.20;77.60;;;;;;5088015;28;19915;-71
2023/05/18 10:59:17;;;;;;;;;;;13.20;77.90;;;;;;5107956;28;20016;-72
2023/05/18 11:01:43;;;;;;;;;;;13.20;78.90;;;;;;5106910;28;19923;-71
2023/05/18 11:04:09;;;;;;;;;;;13.30;77.70;;;;;;5092491;28;19950;-73
2023/05/18 11:06:35;;;;;;;;;;;13.50;75.80;;;;;;5094720;28;19919;-74
2023/05/18 11:09:00;;;;;;;;;;;13.70;77.80;;;;;;5109459;28;19912;-72
2023/05/18 11:11:28;;;;;;;;;;;13.90;76.50;;;;;;5110143;27;20467;-73
2023/05/18 11:14:01;;;;;;;;;;;14.20;74.30;;;;;;5092477;27;19999;-71
2023/05/18 11:16:34;;;;;;;;;;;15.00;73.30;;;;;;5110594;27;19915;-73
2023/05/18 11:19:06;;;;;;;;;;;16.30;69.40;;;;;;5112105;27;20053;-72
2023/05/18 11:21:34;;;;;;;;;;;17.30;68.50;;;;;;5092407;28;19977;-73
2023/05/18 11:24:19;;;;;;;;;;;18.40;65.40;;;;;;5093944;28;19919;-73
2023/05/18 11:26:46;;;;;;;;;;;19.60;60.00;;;;;;5105429;28;19912;-72
2023/05/18 11:29:16;;;;;;;;;;;21.40;56.50;;;;;;5107006;28;19923;-74
2023/05/18 11:31:42;;;;;;;;;;;23.00;50.60;;;;;;5108098;27;19919;-72
2023/05/18 11:34:26;;;;;;;;;;;22.90;48.20;;;;;;5111055;28;19908;-72
2023/05/18 11:36:54;;;;;;;;;;;24.40;45.20;;;;;;5111074;27;20011;-74
2023/05/18 11:39:23;;;;;;;;;;;25.40;43.60;;;;;;5111667;28;19907;-74
2023/05/18 11:41:57;;;;;;;;;;;26.50;41.00;;;;;;5092861;28;20053;-73
2023/05/18 11:44:26;;;;;;;;;;;27.50;38.40;;;;;;5110047;27;19919;-74
2023/05/18 11:46:58;;;;;;;;;;;27.60;38.20;;;;;;5091637;28;19919;-73
2023/05/18 11:49:26;;;;;;;;;;;27.70;38.20;;;;;;5093305;28;19907;-73
2023/05/18 11:52:01;;;;;;;;;;;27.20;37.40;;;;;;5090775;27;19916;-74
2023/05/18 11:54:26;;;;;;;;;;;26.60;37.20;;;;;;5102906;28;20015;-73
2023/05/18 11:56:52;;;;;;;;;;;26.10;37.90;;;;;;5091579;28;20044;-74
2023/05/18 11:59:29;;;;;;;;;;;25.60;38.60;;;;;;5108113;28;19915;-73
2023/05/18 12:01:56;;;;;;;;;;;25.40;38.00;;;;;;5092561;28;20235;-73
2023/05/18 12:04:23;;;;;;;;;;;25.40;38.30;;;;;;5090114;28;19923;-73
2023/05/18 12:06:48;;;;;;;;;;;24.60;39.50;;;;;;5092765;28;19968;-74
2023/05/18 12:09:14;;;;;;;;;;;24.00;40.20;;;;;;5090536;28;19991;-73
2023/05/18 12:11:40;;;;;;;;;;;25.00;39.30;;;;;;5108842;27;20410;-74
2023/05/18 12:14:06;;;;;;;;;;;24.70;39.70;;;;;;5091468;28;19911;-74
2023/05/18 12:16:31;;;;;;;;;;;24.50;39.60;;;;;;5091050;28;19916;-75
2023/05/18 12:18:57;;;;;;;;;;;24.50;40.00;;;;;;5110994;28;19912;-75
2023/05/18 12:21:25;;;;;;;;;;;24.00;40.80;;;;;;5107956;28;19912;-74
2023/05/18 12:23:58;;;;;;;;;;;24.70;40.30;;;;;;5107118;28;20366;-74
2023/05/18 12:26:27;;;;;;;;;;;25.10;38.50;;;;;;5108131;27;19915;-73
2023/05/18 12:28:56;;;;;;;;;;;24.60;39.60;;;;;;5092836;28;19915;-74
2023/05/18 12:31:22;;;;;;;;;;;24.50;38.20;;;;;;5110039;28;19922;-74
2023/05/18 12:33:48;;;;;;;;;;;23.60;38.60;;;;;;5110583;28;19911;-75
2023/05/18 12:36:13;;;;;;;;;;;24.00;40.10;;;;;;5090968;28;20002;-74
2023/05/18 12:38:39;;;;;;;;;;;24.80;38.10;;;;;;5109864;28;19995;-74
2023/05/18 12:41:05;;;;;;;;;;;25.40;37.30;;;;;;5088659;28;20523;-72
2023/05/18 12:43:36;;;;;;;;;;;24.00;39.60;;;;;;5110535;27;19908;-74
2023/05/18 12:46:02;;;;;;;;;;;24.50;39.00;;;;;;5110744;27;20310;-73
2023/05/18 12:48:34;;;;;;;;;;;24.70;38.70;;;;;;5110524;27;19912;-73
2023/05/18 12:51:00;;;;;;;;;;;25.00;38.30;;;;;;5075712;28;19916;-74
2023/05/18 12:53:26;;;;;;;;;;;24.80;39.00;;;;;;5111001;28;19923;-74
2023/05/18 12:56:03;;;;;;;;;;;25.20;37.50;;;;;;5090125;28;19957;-74
2023/05/18 12:58:28;;;;;;;;;;;25.40;39.00;;;;;;5105934;28;19916;-74
2023/05/18 13:00:54;;;;;;;;;;;25.80;37.90;;;;;;5091554;28;19969;-74
2023/05/18 13:03:20;;;;;;;;;;;26.30;36.80;;;;;;5109373;27;20006;-74
2023/05/18 13:06:02;;;;;;;;;;;26.70;37.10;;;;;;5112252;28;19955;-73
2023/05/18 13:08:27;;;;;;;;;;;26.80;37.40;;;;;;5110481;28;19943;-72
2023/05/18 13:10:53;;;;;;;;;;;27.00;36.60;;;;;;5110875;28;19962;-74
2023/05/18 13:13:18;;;;;;;;;;;27.50;34.90;;;;;;5075592;28;19965;-73
2023/05/18 13:15:45;;;;;;;;;;;27.50;35.40;;;;;;5088205;28;20294;-72
2023/05/18 13:18:11;;;;;;;;;;;27.70;34.00;;;;;;5109578;28;19993;-73
2023/05/18 13:20:43;;;;;;;;;;;27.30;35.80;;;;;;5110818;28;20367;-73
2023/05/18 13:23:10;;;;;;;;;;;27.90;35.30;;;;;;5091162;28;20489;-74
2023/05/18 13:25:36;;;;;;;;;;;29.00;34.70;;;;;;5091436;28;19920;-74
2023/05/18 13:28:02;;;;;;;;;;;29.00;33.20;;;;;;5108004;28;19929;-73
2023/05/18 13:30:28;;;;;;;;;;;29.10;33.70;;;;;;5090364;28;19975;-73
2023/05/18 13:32:54;;;;;;;;;;;28.60;34.70;;;;;;5107353;28;19912;-73
2023/05/18 13:35:19;;;;;;;;;;;29.20;34.10;;;;;;5090388;28;19912;-73
2023/05/18 13:37:47;;;;;;;;;;;29.70;33.80;;;;;;5109414;28;19912;-75
2023/05/18 13:40:14;;;;;;;;;;;29.80;33.30;;;;;;5087738;28;20015;-74
2023/05/18 13:42:39;;;;;;;;;;;30.20;33.30;;;;;;5091203;28;19951;-74
2023/05/18 13:45:05;;;;;;;;;;;30.40;32.90;;;;;;5087712;28;19959;-73
2023/05/18 13:47:31;;;;;;;;;;;30.90;32.30;;;;;;5107374;28;20006;-74
2023/05/18 13:49:56;;;;;;;;;;;30.80;31.90;;;;;;5107310;28;19927;-74
2023/05/18 13:52:22;;;;;;;;;;;30.50;32.40;;;;;;5072264;28;19915;-73
2023/05/18 13:54:47;;;;;;;;;;;29.90;32.10;;;;;;5089158;28;19916;-73
2023/05/18 13:57:13;;;;;;;;;;;29.40;32.90;;;;;;5108395;28;19968;-73
2023/05/18 13:59:39;;;;;;;;;;;29.30;33.00;;;;;;5108688;28;19912;-74
2023/05/18 14:02:04;;;;;;;;;;;29.30;33.70;;;;;;5087205;28;20065;-73
2023/05/18 14:04:30;;;;;;;;;;;29.40;32.20;;;;;;5108300;28;20408;-73
2023/05/18 14:06:57;;;;;;;;;;;29.80;31.70;;;;;;5107776;28;19915;-74
2023/05/18 14:09:24;;;;;;;;;;;29.50;32.70;;;;;;5108918;28;19911;-74
2023/05/18 14:11:50;;;;;;;;;;;29.30;32.70;;;;;;5089801;28;20538;-73
2023/05/18 14:14:16;;;;;;;;;;;28.20;33.30;;;;;;5107906;28;19973;-74
2023/05/18 14:16:41;;;;;;;;;;;27.80;33.40;;;;;;5088932;28;19935;-74
2023/05/18 14:19:07;;;;;;;;;;;25.90;34.10;;;;;;5089461;28;19920;-74
2023/05/18 14:21:32;;;;;;;;;;;25.30;35.10;;;;;;5108440;28;19974;-72